sensor_id;sensor_type;location;lat;lon;timestamp;P1;durP1;ratioP1;P2;durP2;ratioP2
22754;SDS011;11544;42.020;23.094;2023-05-07T00:01:25;3.67;;;2.97;;
22754;SDS011;11544;42.020;23.094;2023-05-07T00:03:52;3.58;;;2.90;;
22754;SDS011;11544;42.020;23.094;2023-05-07T00:06:19;4.95;;;3.10;;
22754;SDS011;11544;42.020;23.094;2023-05-07T00:08:46;5.55;;;3.30;;
22754;SDS011;11544;42.020;23.094;2023-05-07T00:11:13;7.47;;;3.20;;
22754;SDS011;11544;42.020;23.094;2023-05-07T00:13:41;3.97;;;2.97;;
22754;SDS011;11544;42.020;23.094;2023-05-07T00:16:08;3.90;;;3.03;;
22754;SDS011;11544;42.020;23.094;2023-05-07T00:18:35;3.42;;;2.97;;
22754;SDS011;11544;42.020;23.094;2023-05-07T00:21:02;6.68;;;3.58;;
22754;SDS011;11544;42.020;23.094;2023-05-07T00:23:29;4.15;;;2.95;;
22754;SDS011;11544;42.020;23.094;2023-05-07T00:25:56;4.75;;;2.75;;
22754;SDS011;11544;42.020;23.094;2023-05-07T00:28:24;4.60;;;2.90;;
22754;SDS011;11544;42.020;23.094;2023-05-07T00:30:52;3.45;;;2.70;;
22754;SDS011;11544;42.020;23.094;2023-05-07T00:33:19;4.55;;;3.00;;
22754;SDS011;11544;42.020;23.094;2023-05-07T00:35:48;5.82;;;2.80;;
22754;SDS011;11544;42.020;23.094;2023-05-07T00:38:15;4.57;;;3.10;;
22754;SDS011;11544;42.020;23.094;2023-05-07T00:40:43;4.20;;;2.85;;
22754;SDS011;11544;42.020;23.094;2023-05-07T00:43:10;4.28;;;2.97;;
22754;SDS011;11544;42.020;23.094;2023-05-07T00:45:51;6.22;;;3.42;;
22754;SDS011;11544;42.020;23.094;2023-05-07T00:48:18;5.20;;;3.10;;
22754;SDS011;11544;42.020;23.094;2023-05-07T00:50:45;6.22;;;3.30;;
22754;SDS011;11544;42.020;23.094;2023-05-07T00:53:14;3.70;;;3.20;;
22754;SDS011;11544;42.020;23.094;2023-05-07T00:55:41;4.80;;;3.30;;
22754;SDS011;11544;42.020;23.094;2023-05-07T00:58:08;3.72;;;3.03;;
22754;SDS011;11544;42.020;23.094;2023-05-07T01:00:35;3.78;;;3.17;;
22754;SDS011;11544;42.020;23.094;2023-05-07T01:03:06;4.05;;;2.83;;
22754;SDS011;11544;42.020;23.094;2023-05-07T01:08:31;3.60;;;3.10;;
22754;SDS011;11544;42.020;23.094;2023-05-07T01:10:59;5.88;;;3.85;;
22754;SDS011;11544;42.020;23.094;2023-05-07T01:13:26;4.85;;;3.40;;
22754;SDS011;11544;42.020;23.094;2023-05-07T01:15:54;4.30;;;2.83;;
22754;SDS011;11544;42.020;23.094;2023-05-07T01:18:21;4.57;;;3.15;;
22754;SDS011;11544;42.020;23.094;2023-05-07T01:20:51;4.63;;;3.15;;
22754;SDS011;11544;42.020;23.094;2023-05-07T01:23:18;3.42;;;3.13;;
22754;SDS011;11544;42.020;23.094;2023-05-07T01:25:54;4.40;;;3.20;;
22754;SDS011;11544;42.020;23.094;2023-05-07T01:28:22;3.28;;;2.97;;
22754;SDS011;11544;42.020;23.094;2023-05-07T01:30:53;4.25;;;2.85;;
22754;SDS011;11544;42.020;23.094;2023-05-07T01:33:26;6.03;;;3.35;;
22754;SDS011;11544;42.020;23.094;2023-05-07T01:35:58;3.60;;;3.10;;
22754;SDS011;11544;42.020;23.094;2023-05-07T01:38:28;3.42;;;3.00;;
22754;SDS011;11544;42.020;23.094;2023-05-07T01:40:57;7.43;;;3.30;;
22754;SDS011;11544;42.020;23.094;2023-05-07T01:43:24;4.95;;;3.15;;
22754;SDS011;11544;42.020;23.094;2023-05-07T01:45:51;4.10;;;3.38;;
22754;SDS011;11544;42.020;23.094;2023-05-07T01:48:19;4.80;;;3.30;;
22754;SDS011;11544;42.020;23.094;2023-05-07T01:50:47;4.72;;;3.50;;
22754;SDS011;11544;42.020;23.094;2023-05-07T01:53:14;3.63;;;3.08;;
22754;SDS011;11544;42.020;23.094;2023-05-07T01:55:41;5.47;;;3.60;;
22754;SDS011;11544;42.020;23.094;2023-05-07T01:58:08;3.80;;;3.13;;
22754;SDS011;11544;42.020;23.094;2023-05-07T02:00:35;10.30;;;3.25;;
22754;SDS011;11544;42.020;23.094;2023-05-07T02:03:02;4.85;;;3.67;;
22754;SDS011;11544;42.020;23.094;2023-05-07T02:05:29;5.00;;;3.33;;
22754;SDS011;11544;42.020;23.094;2023-05-07T02:07:59;5.55;;;3.78;;
22754;SDS011;11544;42.020;23.094;2023-05-07T02:10:26;4.70;;;3.40;;
22754;SDS011;11544;42.020;23.094;2023-05-07T02:12:53;5.93;;;3.60;;
22754;SDS011;11544;42.020;23.094;2023-05-07T02:15:20;5.50;;;3.33;;
22754;SDS011;11544;42.020;23.094;2023-05-07T02:20:33;4.35;;;3.50;;
22754;SDS011;11544;42.020;23.094;2023-05-07T02:23:00;5.22;;;3.22;;
22754;SDS011;11544;42.020;23.094;2023-05-07T02:25:27;4.78;;;2.80;;
22754;SDS011;11544;42.020;23.094;2023-05-07T02:27:54;5.45;;;3.38;;
22754;SDS011;11544;42.020;23.094;2023-05-07T02:30:20;5.93;;;3.33;;
22754;SDS011;11544;42.020;23.094;2023-05-07T02:32:53;4.10;;;3.30;;
22754;SDS011;11544;42.020;23.094;2023-05-07T02:35:21;5.32;;;3.30;;
22754;SDS011;11544;42.020;23.094;2023-05-07T02:37:47;4.60;;;3.63;;
22754;SDS011;11544;42.020;23.094;2023-05-07T02:40:22;3.97;;;3.47;;
22754;SDS011;11544;42.020;23.094;2023-05-07T02:42:49;3.65;;;3.20;;
22754;SDS011;11544;42.020;23.094;2023-05-07T02:45:16;3.58;;;3.17;;
22754;SDS011;11544;42.020;23.094;2023-05-07T02:47:43;4.43;;;3.08;;
22754;SDS011;11544;42.020;23.094;2023-05-07T02:50:10;5.20;;;3.25;;
22754;SDS011;11544;42.020;23.094;2023-05-07T02:52:38;4.93;;;3.40;;
22754;SDS011;11544;42.020;23.094;2023-05-07T02:55:05;3.75;;;3.08;;
22754;SDS011;11544;42.020;23.094;2023-05-07T02:57:32;4.90;;;3.22;;
22754;SDS011;11544;42.020;23.094;2023-05-07T03:00:09;4.07;;;3.10;;
22754;SDS011;11544;42.020;23.094;2023-05-07T03:02:40;4.90;;;3.35;;
22754;SDS011;11544;42.020;23.094;2023-05-07T03:05:07;5.07;;;3.40;;
22754;SDS011;11544;42.020;23.094;2023-05-07T03:07:43;6.40;;;3.22;;
22754;SDS011;11544;42.020;23.094;2023-05-07T03:10:12;5.85;;;3.58;;
22754;SDS011;11544;42.020;23.094;2023-05-07T03:12:44;5.72;;;3.53;;
22754;SDS011;11544;42.020;23.094;2023-05-07T03:15:11;5.15;;;3.40;;
22754;SDS011;11544;42.020;23.094;2023-05-07T03:17:39;4.93;;;3.33;;
22754;SDS011;11544;42.020;23.094;2023-05-07T03:20:06;8.55;;;3.92;;
22754;SDS011;11544;42.020;23.094;2023-05-07T03:22:34;4.20;;;3.00;;
22754;SDS011;11544;42.020;23.094;2023-05-07T03:25:01;4.03;;;3.03;;
22754;SDS011;11544;42.020;23.094;2023-05-07T03:27:37;4.57;;;3.47;;
22754;SDS011;11544;42.020;23.094;2023-05-07T03:30:04;5.82;;;3.53;;
22754;SDS011;11544;42.020;23.094;2023-05-07T03:32:33;7.43;;;3.40;;
22754;SDS011;11544;42.020;23.094;2023-05-07T03:35:03;4.35;;;3.33;;
22754;SDS011;11544;42.020;23.094;2023-05-07T03:37:31;4.00;;;3.35;;
22754;SDS011;11544;42.020;23.094;2023-05-07T03:40:04;4.82;;;3.60;;
22754;SDS011;11544;42.020;23.094;2023-05-07T03:42:37;5.18;;;3.30;;
22754;SDS011;11544;42.020;23.094;2023-05-07T03:45:04;6.18;;;4.22;;
22754;SDS011;11544;42.020;23.094;2023-05-07T03:47:34;5.00;;;3.60;;
22754;SDS011;11544;42.020;23.094;2023-05-07T03:50:01;4.45;;;3.25;;
22754;SDS011;11544;42.020;23.094;2023-05-07T03:52:28;7.75;;;3.50;;
22754;SDS011;11544;42.020;23.094;2023-05-07T03:54:55;4.38;;;3.38;;
22754;SDS011;11544;42.020;23.094;2023-05-07T03:57:26;4.25;;;3.35;;
22754;SDS011;11544;42.020;23.094;2023-05-07T04:00:10;3.88;;;3.35;;
22754;SDS011;11544;42.020;23.094;2023-05-07T04:02:38;3.75;;;3.17;;
22754;SDS011;11544;42.020;23.094;2023-05-07T04:05:06;3.85;;;3.30;;
22754;SDS011;11544;42.020;23.094;2023-05-07T04:07:38;5.47;;;3.33;;
22754;SDS011;11544;42.020;23.094;2023-05-07T04:10:05;5.65;;;3.28;;
22754;SDS011;11544;42.020;23.094;2023-05-07T04:12:34;4.50;;;3.28;;
22754;SDS011;11544;42.020;23.094;2023-05-07T04:15:00;5.57;;;3.33;;
22754;SDS011;11544;42.020;23.094;2023-05-07T04:17:27;4.90;;;3.65;;
22754;SDS011;11544;42.020;23.094;2023-05-07T04:19:54;5.00;;;3.17;;
22754;SDS011;11544;42.020;23.094;2023-05-07T04:22:24;3.80;;;2.85;;
22754;SDS011;11544;42.020;23.094;2023-05-07T04:24:51;4.18;;;3.30;;
22754;SDS011;11544;42.020;23.094;2023-05-07T04:27:17;3.90;;;3.20;;
22754;SDS011;11544;42.020;23.094;2023-05-07T04:29:44;8.75;;;3.70;;
22754;SDS011;11544;42.020;23.094;2023-05-07T04:32:27;5.70;;;3.35;;
22754;SDS011;11544;42.020;23.094;2023-05-07T04:34:55;3.95;;;3.10;;
22754;SDS011;11544;42.020;23.094;2023-05-07T04:37:31;3.78;;;2.60;;
22754;SDS011;11544;42.020;23.094;2023-05-07T04:39:58;4.82;;;3.08;;
22754;SDS011;11544;42.020;23.094;2023-05-07T04:42:26;4.22;;;3.15;;
22754;SDS011;11544;42.020;23.094;2023-05-07T04:44:55;6.63;;;3.22;;
22754;SDS011;11544;42.020;23.094;2023-05-07T04:47:22;5.60;;;2.88;;
22754;SDS011;11544;42.020;23.094;2023-05-07T04:49:49;7.00;;;3.22;;
22754;SDS011;11544;42.020;23.094;2023-05-07T04:52:22;4.75;;;3.20;;
22754;SDS011;11544;42.020;23.094;2023-05-07T04:54:52;4.65;;;2.88;;
22754;SDS011;11544;42.020;23.094;2023-05-07T04:57:19;4.65;;;3.47;;
22754;SDS011;11544;42.020;23.094;2023-05-07T04:59:46;3.78;;;2.95;;
22754;SDS011;11544;42.020;23.094;2023-05-07T05:02:21;5.75;;;3.42;;
22754;SDS011;11544;42.020;23.094;2023-05-07T05:04:49;5.35;;;3.70;;
22754;SDS011;11544;42.020;23.094;2023-05-07T05:07:15;4.95;;;3.58;;
22754;SDS011;11544;42.020;23.094;2023-05-07T05:09:42;6.25;;;3.95;;
22754;SDS011;11544;42.020;23.094;2023-05-07T05:12:09;5.32;;;4.40;;
22754;SDS011;11544;42.020;23.094;2023-05-07T05:14:40;8.38;;;5.00;;
22754;SDS011;11544;42.020;23.094;2023-05-07T05:17:07;9.60;;;6.00;;
22754;SDS011;11544;42.020;23.094;2023-05-07T05:19:34;8.05;;;4.90;;
22754;SDS011;11544;42.020;23.094;2023-05-07T05:22:01;7.68;;;5.28;;
22754;SDS011;11544;42.020;23.094;2023-05-07T05:24:30;6.57;;;5.13;;
22754;SDS011;11544;42.020;23.094;2023-05-07T05:27:11;7.53;;;4.85;;
22754;SDS011;11544;42.020;23.094;2023-05-07T05:29:38;7.13;;;5.40;;
22754;SDS011;11544;42.020;23.094;2023-05-07T05:32:05;8.88;;;6.85;;
22754;SDS011;11544;42.020;23.094;2023-05-07T05:34:32;7.50;;;4.80;;
22754;SDS011;11544;42.020;23.094;2023-05-07T05:36:59;6.47;;;4.70;;
22754;SDS011;11544;42.020;23.094;2023-05-07T05:39:26;6.75;;;4.70;;
22754;SDS011;11544;42.020;23.094;2023-05-07T05:41:53;5.53;;;3.92;;
22754;SDS011;11544;42.020;23.094;2023-05-07T05:44:20;7.40;;;5.03;;
22754;SDS011;11544;42.020;23.094;2023-05-07T05:46:47;7.45;;;4.95;;
22754;SDS011;11544;42.020;23.094;2023-05-07T05:49:16;8.05;;;5.03;;
22754;SDS011;11544;42.020;23.094;2023-05-07T05:51:43;7.50;;;5.15;;
22754;SDS011;11544;42.020;23.094;2023-05-07T05:54:09;7.38;;;5.72;;
22754;SDS011;11544;42.020;23.094;2023-05-07T05:56:36;5.05;;;4.38;;
22754;SDS011;11544;42.020;23.094;2023-05-07T05:59:04;7.55;;;4.85;;
22754;SDS011;11544;42.020;23.094;2023-05-07T06:01:34;7.78;;;5.22;;
22754;SDS011;11544;42.020;23.094;2023-05-07T06:04:04;6.60;;;5.55;;
22754;SDS011;11544;42.020;23.094;2023-05-07T06:06:31;8.02;;;5.28;;
22754;SDS011;11544;42.020;23.094;2023-05-07T06:08:58;5.55;;;4.20;;
22754;SDS011;11544;42.020;23.094;2023-05-07T06:11:26;6.18;;;4.38;;
22754;SDS011;11544;42.020;23.094;2023-05-07T06:13:53;7.47;;;4.95;;
22754;SDS011;11544;42.020;23.094;2023-05-07T06:16:20;5.88;;;5.25;;
22754;SDS011;11544;42.020;23.094;2023-05-07T06:18:49;8.05;;;4.43;;
22754;SDS011;11544;42.020;23.094;2023-05-07T06:21:16;8.25;;;4.93;;
22754;SDS011;11544;42.020;23.094;2023-05-07T06:23:44;7.00;;;4.38;;
22754;SDS011;11544;42.020;23.094;2023-05-07T06:26:11;9.38;;;5.10;;
22754;SDS011;11544;42.020;23.094;2023-05-07T06:28:41;6.43;;;4.88;;
22754;SDS011;11544;42.020;23.094;2023-05-07T06:31:12;6.43;;;4.80;;
22754;SDS011;11544;42.020;23.094;2023-05-07T06:33:41;6.07;;;4.65;;
22754;SDS011;11544;42.020;23.094;2023-05-07T06:38:44;8.43;;;5.00;;
22754;SDS011;11544;42.020;23.094;2023-05-07T06:41:11;8.07;;;5.18;;
22754;SDS011;11544;42.020;23.094;2023-05-07T06:43:42;7.63;;;5.28;;
22754;SDS011;11544;42.020;23.094;2023-05-07T06:46:09;7.20;;;4.82;;
22754;SDS011;11544;42.020;23.094;2023-05-07T06:48:36;5.82;;;4.75;;
22754;SDS011;11544;42.020;23.094;2023-05-07T06:51:02;7.18;;;4.40;;
22754;SDS011;11544;42.020;23.094;2023-05-07T06:53:31;7.53;;;4.80;;
22754;SDS011;11544;42.020;23.094;2023-05-07T06:55:58;7.15;;;4.53;;
22754;SDS011;11544;42.020;23.094;2023-05-07T06:58:26;7.03;;;4.47;;
22754;SDS011;11544;42.020;23.094;2023-05-07T07:00:53;8.70;;;4.53;;
22754;SDS011;11544;42.020;23.094;2023-05-07T07:03:23;6.88;;;4.57;;
22754;SDS011;11544;42.020;23.094;2023-05-07T07:05:53;5.10;;;4.00;;
22754;SDS011;11544;42.020;23.094;2023-05-07T07:08:21;8.82;;;4.38;;
22754;SDS011;11544;42.020;23.094;2023-05-07T07:10:58;6.10;;;4.20;;
22754;SDS011;11544;42.020;23.094;2023-05-07T07:13:35;6.90;;;4.70;;
22754;SDS011;11544;42.020;23.094;2023-05-07T07:16:34;11.23;;;4.60;;
22754;SDS011;11544;42.020;23.094;2023-05-07T07:19:01;8.57;;;4.70;;
22754;SDS011;11544;42.020;23.094;2023-05-07T07:21:28;9.02;;;5.15;;
22754;SDS011;11544;42.020;23.094;2023-05-07T07:23:54;6.88;;;4.80;;
22754;SDS011;11544;42.020;23.094;2023-05-07T07:26:28;5.75;;;3.95;;
22754;SDS011;11544;42.020;23.094;2023-05-07T07:29:02;8.20;;;4.47;;
22754;SDS011;11544;42.020;23.094;2023-05-07T07:31:35;7.47;;;4.63;;
22754;SDS011;11544;42.020;23.094;2023-05-07T07:34:05;4.88;;;3.85;;
22754;SDS011;11544;42.020;23.094;2023-05-07T07:36:32;8.23;;;4.50;;
22754;SDS011;11544;42.020;23.094;2023-05-07T07:39:11;8.30;;;4.97;;
22754;SDS011;11544;42.020;23.094;2023-05-07T07:41:39;8.68;;;4.47;;
22754;SDS011;11544;42.020;23.094;2023-05-07T07:44:05;6.85;;;5.05;;
22754;SDS011;11544;42.020;23.094;2023-05-07T07:46:33;7.88;;;5.35;;
22754;SDS011;11544;42.020;23.094;2023-05-07T07:49:01;11.30;;;4.60;;
22754;SDS011;11544;42.020;23.094;2023-05-07T07:51:28;7.10;;;5.65;;
22754;SDS011;11544;42.020;23.094;2023-05-07T07:53:54;6.55;;;4.50;;
22754;SDS011;11544;42.020;23.094;2023-05-07T07:56:21;5.95;;;4.63;;
22754;SDS011;11544;42.020;23.094;2023-05-07T07:58:48;5.95;;;4.40;;
22754;SDS011;11544;42.020;23.094;2023-05-07T08:01:15;5.40;;;4.10;;
22754;SDS011;11544;42.020;23.094;2023-05-07T08:03:43;8.07;;;3.78;;
22754;SDS011;11544;42.020;23.094;2023-05-07T08:06:10;9.15;;;4.35;;
22754;SDS011;11544;42.020;23.094;2023-05-07T08:08:37;7.28;;;4.10;;
22754;SDS011;11544;42.020;23.094;2023-05-07T08:11:04;9.43;;;3.58;;
22754;SDS011;11544;42.020;23.094;2023-05-07T08:13:31;5.35;;;3.83;;
22754;SDS011;11544;42.020;23.094;2023-05-07T08:16:13;4.68;;;3.80;;
22754;SDS011;11544;42.020;23.094;2023-05-07T08:18:50;6.90;;;3.83;;
22754;SDS011;11544;42.020;23.094;2023-05-07T08:21:17;6.43;;;3.83;;
22754;SDS011;11544;42.020;23.094;2023-05-07T08:23:44;6.80;;;3.47;;
22754;SDS011;11544;42.020;23.094;2023-05-07T08:26:11;14.38;;;4.00;;
22754;SDS011;11544;42.020;23.094;2023-05-07T08:28:38;6.53;;;3.53;;
22754;SDS011;11544;42.020;23.094;2023-05-07T08:31:06;9.93;;;4.00;;
22754;SDS011;11544;42.020;23.094;2023-05-07T08:33:35;6.70;;;3.47;;
22754;SDS011;11544;42.020;23.094;2023-05-07T08:36:03;4.32;;;3.28;;
22754;SDS011;11544;42.020;23.094;2023-05-07T08:38:43;7.20;;;4.05;;
22754;SDS011;11544;42.020;23.094;2023-05-07T08:41:12;4.45;;;3.63;;
22754;SDS011;11544;42.020;23.094;2023-05-07T08:43:40;6.07;;;3.90;;
22754;SDS011;11544;42.020;23.094;2023-05-07T08:46:09;5.78;;;3.53;;
22754;SDS011;11544;42.020;23.094;2023-05-07T08:48:37;6.93;;;3.78;;
22754;SDS011;11544;42.020;23.094;2023-05-07T08:51:05;5.88;;;3.42;;
22754;SDS011;11544;42.020;23.094;2023-05-07T08:53:33;3.50;;;3.20;;
22754;SDS011;11544;42.020;23.094;2023-05-07T08:56:00;6.15;;;3.05;;
22754;SDS011;11544;42.020;23.094;2023-05-07T08:58:27;4.97;;;2.80;;
22754;SDS011;11544;42.020;23.094;2023-05-07T09:00:56;3.67;;;2.90;;
22754;SDS011;11544;42.020;23.094;2023-05-07T09:03:23;5.70;;;4.72;;
22754;SDS011;11544;42.020;23.094;2023-05-07T09:05:50;4.75;;;3.42;;
22754;SDS011;11544;42.020;23.094;2023-05-07T09:08:17;4.38;;;3.35;;
22754;SDS011;11544;42.020;23.094;2023-05-07T09:10:47;5.88;;;3.95;;
22754;SDS011;11544;42.020;23.094;2023-05-07T09:13:15;5.97;;;3.90;;
22754;SDS011;11544;42.020;23.094;2023-05-07T09:15:44;5.28;;;4.00;;
22754;SDS011;11544;42.020;23.094;2023-05-07T09:18:14;6.95;;;3.20;;
22754;SDS011;11544;42.020;23.094;2023-05-07T09:20:42;4.43;;;3.25;;
22754;SDS011;11544;42.020;23.094;2023-05-07T09:23:09;7.05;;;3.70;;
22754;SDS011;11544;42.020;23.094;2023-05-07T09:25:36;4.20;;;3.70;;
22754;SDS011;11544;42.020;23.094;2023-05-07T09:28:04;6.22;;;3.30;;
22754;SDS011;11544;42.020;23.094;2023-05-07T09:30:33;3.90;;;2.97;;
22754;SDS011;11544;42.020;23.094;2023-05-07T09:33:03;3.42;;;2.88;;
22754;SDS011;11544;42.020;23.094;2023-05-07T09:35:30;4.38;;;3.10;;
22754;SDS011;11544;42.020;23.094;2023-05-07T09:38:00;4.13;;;3.30;;
22754;SDS011;11544;42.020;23.094;2023-05-07T09:40:30;4.78;;;2.78;;
22754;SDS011;11544;42.020;23.094;2023-05-07T09:43:08;3.70;;;2.85;;
22754;SDS011;11544;42.020;23.094;2023-05-07T09:45:39;5.00;;;3.20;;
22754;SDS011;11544;42.020;23.094;2023-05-07T09:48:07;3.25;;;2.85;;
22754;SDS011;11544;42.020;23.094;2023-05-07T09:50:35;5.45;;;2.80;;
22754;SDS011;11544;42.020;23.094;2023-05-07T09:53:07;2.97;;;2.75;;
22754;SDS011;11544;42.020;23.094;2023-05-07T09:55:36;3.83;;;3.10;;
22754;SDS011;11544;42.020;23.094;2023-05-07T09:58:04;2.70;;;2.50;;
22754;SDS011;11544;42.020;23.094;2023-05-07T10:00:40;2.70;;;2.40;;
22754;SDS011;11544;42.020;23.094;2023-05-07T10:03:07;2.70;;;2.50;;
22754;SDS011;11544;42.020;23.094;2023-05-07T10:05:36;2.65;;;2.45;;
22754;SDS011;11544;42.020;23.094;2023-05-07T10:08:04;3.75;;;3.05;;
22754;SDS011;11544;42.020;23.094;2023-05-07T10:10:33;2.55;;;2.35;;
22754;SDS011;11544;42.020;23.094;2023-05-07T10:13:01;4.90;;;2.92;;
22754;SDS011;11544;42.020;23.094;2023-05-07T10:15:34;3.13;;;2.63;;
22754;SDS011;11544;42.020;23.094;2023-05-07T10:18:02;5.70;;;3.28;;
22754;SDS011;11544;42.020;23.094;2023-05-07T10:20:31;4.10;;;3.05;;
22754;SDS011;11544;42.020;23.094;2023-05-07T10:23:04;3.50;;;2.60;;
22754;SDS011;11544;42.020;23.094;2023-05-07T10:25:32;3.33;;;3.00;;
22754;SDS011;11544;42.020;23.094;2023-05-07T10:28:00;5.47;;;2.70;;
22754;SDS011;11544;42.020;23.094;2023-05-07T10:30:40;3.67;;;3.33;;
22754;SDS011;11544;42.020;23.094;2023-05-07T10:33:13;3.80;;;3.40;;
22754;SDS011;11544;42.020;23.094;2023-05-07T10:35:44;2.58;;;2.38;;
22754;SDS011;11544;42.020;23.094;2023-05-07T10:38:17;2.85;;;2.60;;
22754;SDS011;11544;42.020;23.094;2023-05-07T10:40:48;2.95;;;2.75;;
22754;SDS011;11544;42.020;23.094;2023-05-07T10:43:15;3.10;;;2.80;;
22754;SDS011;11544;42.020;23.094;2023-05-07T10:45:42;4.75;;;3.08;;
22754;SDS011;11544;42.020;23.094;2023-05-07T10:48:13;6.25;;;3.03;;
22754;SDS011;11544;42.020;23.094;2023-05-07T10:53:46;5.00;;;2.63;;
22754;SDS011;11544;42.020;23.094;2023-05-07T10:56:37;2.80;;;2.50;;
22754;SDS011;11544;42.020;23.094;2023-05-07T10:59:53;3.30;;;3.00;;
22754;SDS011;11544;42.020;23.094;2023-05-07T11:01:59;4.13;;;3.03;;
22754;SDS011;11544;42.020;23.094;2023-05-07T11:04:29;2.95;;;2.30;;
22754;SDS011;11544;42.020;23.094;2023-05-07T11:15:04;4.82;;;3.45;;
22754;SDS011;11544;42.020;23.094;2023-05-07T11:17:32;2.83;;;2.63;;
22754;SDS011;11544;42.020;23.094;2023-05-07T11:20:03;2.80;;;2.60;;
22754;SDS011;11544;42.020;23.094;2023-05-07T11:25:05;3.13;;;2.83;;
22754;SDS011;11544;42.020;23.094;2023-05-07T11:27:33;2.33;;;2.13;;
22754;SDS011;11544;42.020;23.094;2023-05-07T11:30:00;3.15;;;2.80;;
22754;SDS011;11544;42.020;23.094;2023-05-07T11:32:31;3.28;;;2.55;;
22754;SDS011;11544;42.020;23.094;2023-05-07T11:35:12;4.03;;;2.95;;
22754;SDS011;11544;42.020;23.094;2023-05-07T11:37:41;3.08;;;2.72;;
22754;SDS011;11544;42.020;23.094;2023-05-07T11:40:11;3.25;;;2.65;;
22754;SDS011;11544;42.020;23.094;2023-05-07T11:42:40;4.70;;;2.50;;
22754;SDS011;11544;42.020;23.094;2023-05-07T11:45:09;2.97;;;2.78;;
22754;SDS011;11544;42.020;23.094;2023-05-07T11:47:37;3.72;;;2.40;;
22754;SDS011;11544;42.020;23.094;2023-05-07T11:50:15;4.20;;;2.45;;
22754;SDS011;11544;42.020;23.094;2023-05-07T11:52:51;3.25;;;2.55;;
22754;SDS011;11544;42.020;23.094;2023-05-07T11:55:25;3.67;;;2.40;;
22754;SDS011;11544;42.020;23.094;2023-05-07T11:57:52;2.92;;;2.65;;
22754;SDS011;11544;42.020;23.094;2023-05-07T12:00:21;4.75;;;2.47;;
22754;SDS011;11544;42.020;23.094;2023-05-07T12:02:47;3.78;;;2.95;;
22754;SDS011;11544;42.020;23.094;2023-05-07T12:05:14;3.78;;;2.35;;
22754;SDS011;11544;42.020;23.094;2023-05-07T12:07:42;3.15;;;2.40;;
22754;SDS011;11544;42.020;23.094;2023-05-07T12:10:09;3.47;;;2.33;;
22754;SDS011;11544;42.020;23.094;2023-05-07T12:12:40;3.33;;;3.03;;
22754;SDS011;11544;42.020;23.094;2023-05-07T12:15:11;4.93;;;2.58;;
22754;SDS011;11544;42.020;23.094;2023-05-07T12:17:41;8.20;;;3.10;;
22754;SDS011;11544;42.020;23.094;2023-05-07T12:20:09;3.90;;;2.70;;
22754;SDS011;11544;42.020;23.094;2023-05-07T12:22:36;5.07;;;2.72;;
22754;SDS011;11544;42.020;23.094;2023-05-07T12:25:03;4.22;;;2.60;;
22754;SDS011;11544;42.020;23.094;2023-05-07T12:27:32;2.95;;;2.75;;
22754;SDS011;11544;42.020;23.094;2023-05-07T12:29:58;3.33;;;2.53;;
22754;SDS011;11544;42.020;23.094;2023-05-07T12:32:25;3.38;;;2.63;;
22754;SDS011;11544;42.020;23.094;2023-05-07T12:34:52;3.00;;;2.70;;
22754;SDS011;11544;42.020;23.094;2023-05-07T12:37:25;3.50;;;2.63;;
22754;SDS011;11544;42.020;23.094;2023-05-07T12:40:08;3.58;;;3.08;;
22754;SDS011;11544;42.020;23.094;2023-05-07T12:42:37;2.78;;;2.58;;
22754;SDS011;11544;42.020;23.094;2023-05-07T12:45:12;4.40;;;2.58;;
22754;SDS011;11544;42.020;23.094;2023-05-07T12:47:46;3.22;;;2.63;;
22754;SDS011;11544;42.020;23.094;2023-05-07T12:50:32;2.83;;;2.42;;
22754;SDS011;11544;42.020;23.094;2023-05-07T12:53:03;3.53;;;2.70;;
22754;SDS011;11544;42.020;23.094;2023-05-07T12:55:48;3.35;;;2.60;;
22754;SDS011;11544;42.020;23.094;2023-05-07T12:58:20;3.75;;;2.72;;
22754;SDS011;11544;42.020;23.094;2023-05-07T13:01:09;4.78;;;2.40;;
22754;SDS011;11544;42.020;23.094;2023-05-07T13:03:53;3.00;;;2.67;;
22754;SDS011;11544;42.020;23.094;2023-05-07T13:06:20;5.60;;;3.25;;
22754;SDS011;11544;42.020;23.094;2023-05-07T13:08:47;3.35;;;2.50;;
22754;SDS011;11544;42.020;23.094;2023-05-07T13:11:16;2.83;;;2.45;;
22754;SDS011;11544;42.020;23.094;2023-05-07T13:13:42;4.00;;;2.30;;
22754;SDS011;11544;42.020;23.094;2023-05-07T13:16:10;2.30;;;2.10;;
22754;SDS011;11544;42.020;23.094;2023-05-07T13:18:47;3.20;;;2.28;;
22754;SDS011;11544;42.020;23.094;2023-05-07T13:21:14;4.22;;;2.67;;
22754;SDS011;11544;42.020;23.094;2023-05-07T13:23:41;2.85;;;2.42;;
22754;SDS011;11544;42.020;23.094;2023-05-07T13:26:32;3.05;;;2.42;;
22754;SDS011;11544;42.020;23.094;2023-05-07T13:28:59;3.33;;;2.85;;
22754;SDS011;11544;42.020;23.094;2023-05-07T13:31:26;2.60;;;2.40;;
22754;SDS011;11544;42.020;23.094;2023-05-07T13:33:53;2.60;;;2.13;;
22754;SDS011;11544;42.020;23.094;2023-05-07T13:36:23;2.50;;;2.30;;
22754;SDS011;11544;42.020;23.094;2023-05-07T13:38:56;3.78;;;2.20;;
22754;SDS011;11544;42.020;23.094;2023-05-07T13:41:25;2.20;;;2.05;;
22754;SDS011;11544;42.020;23.094;2023-05-07T13:43:53;5.35;;;2.47;;
22754;SDS011;11544;42.020;23.094;2023-05-07T13:46:20;4.18;;;2.42;;
22754;SDS011;11544;42.020;23.094;2023-05-07T13:48:48;3.00;;;2.40;;
22754;SDS011;11544;42.020;23.094;2023-05-07T13:51:15;4.57;;;2.67;;
22754;SDS011;11544;42.020;23.094;2023-05-07T13:53:41;2.45;;;2.25;;
22754;SDS011;11544;42.020;23.094;2023-05-07T13:56:08;2.58;;;2.38;;
22754;SDS011;11544;42.020;23.094;2023-05-07T13:58:35;4.68;;;2.13;;
22754;SDS011;11544;42.020;23.094;2023-05-07T14:01:13;2.97;;;2.35;;
22754;SDS011;11544;42.020;23.094;2023-05-07T14:03:46;3.72;;;2.53;;
22754;SDS011;11544;42.020;23.094;2023-05-07T14:06:16;2.13;;;2.00;;
22754;SDS011;11544;42.020;23.094;2023-05-07T14:08:43;2.40;;;2.20;;
22754;SDS011;11544;42.020;23.094;2023-05-07T14:11:10;2.20;;;2.10;;
22754;SDS011;11544;42.020;23.094;2023-05-07T14:13:36;2.22;;;2.00;;
22754;SDS011;11544;42.020;23.094;2023-05-07T14:16:04;2.67;;;2.03;;
22754;SDS011;11544;42.020;23.094;2023-05-07T14:18:30;2.90;;;2.60;;
22754;SDS011;11544;42.020;23.094;2023-05-07T14:20:57;3.90;;;2.83;;
22754;SDS011;11544;42.020;23.094;2023-05-07T14:23:32;3.40;;;2.75;;
22754;SDS011;11544;42.020;23.094;2023-05-07T14:25:59;3.88;;;2.70;;
22754;SDS011;11544;42.020;23.094;2023-05-07T14:28:28;2.78;;;2.58;;
22754;SDS011;11544;42.020;23.094;2023-05-07T14:30:57;3.25;;;2.83;;
22754;SDS011;11544;42.020;23.094;2023-05-07T14:33:24;3.30;;;2.88;;
22754;SDS011;11544;42.020;23.094;2023-05-07T14:35:52;2.72;;;2.53;;
22754;SDS011;11544;42.020;23.094;2023-05-07T14:38:19;2.70;;;2.50;;
22754;SDS011;11544;42.020;23.094;2023-05-07T14:40:46;4.35;;;2.97;;
22754;SDS011;11544;42.020;23.094;2023-05-07T14:43:21;3.00;;;2.70;;
22754;SDS011;11544;42.020;23.094;2023-05-07T14:45:48;3.58;;;3.20;;
22754;SDS011;11544;42.020;23.094;2023-05-07T14:48:16;3.50;;;2.60;;
22754;SDS011;11544;42.020;23.094;2023-05-07T14:50:52;3.47;;;2.45;;
22754;SDS011;11544;42.020;23.094;2023-05-07T14:53:24;3.35;;;3.00;;
22754;SDS011;11544;42.020;23.094;2023-05-07T14:55:52;3.45;;;3.10;;
22754;SDS011;11544;42.020;23.094;2023-05-07T14:58:19;2.75;;;2.55;;
22754;SDS011;11544;42.020;23.094;2023-05-07T15:00:47;3.22;;;3.00;;
22754;SDS011;11544;42.020;23.094;2023-05-07T15:03:14;5.90;;;4.03;;
22754;SDS011;11544;42.020;23.094;2023-05-07T15:05:57;3.13;;;2.88;;
22754;SDS011;11544;42.020;23.094;2023-05-07T15:08:35;3.97;;;3.50;;